createdAt,value
2022-09-03T00:00:25.346Z,101650.44
2022-09-03T00:02:32.073Z,101653.16
2022-09-03T00:04:57.362Z,101653.34
2022-09-03T00:07:03.905Z,101652.69
2022-09-03T00:09:26.026Z,101652.88
2022-09-03T00:11:31.926Z,101653.81
2022-09-03T00:13:38.638Z,101652.22
2022-09-03T00:15:40.759Z,101639.94
2022-09-03T00:17:57.089Z,101647.19
2022-09-03T00:20:13.002Z,101650.84
2022-09-03T00:22:30.370Z,101651.88
2022-09-03T00:24:39.272Z,101658.25
2022-09-03T00:26:45.351Z,101652.97
2022-09-03T00:29:06.686Z,101656.56
2022-09-03T00:31:24.359Z,101650.56
2022-09-03T00:33:32.435Z,101657.63
2022-09-03T00:35:41.486Z,101659.53
2022-09-03T00:37:43.968Z,101658.78
2022-09-03T00:39:45.860Z,101656.31
2022-09-03T00:42:26.118Z,101657.31
2022-09-03T00:44:46.780Z,101657.41
2022-09-03T00:46:51.017Z,101657.47
2022-09-03T00:49:12.549Z,101650.53
2022-09-03T00:51:28.339Z,101654.13
2022-09-03T00:53:34.692Z,101647.25
2022-09-03T00:55:55.588Z,101650.91
2022-09-03T00:58:30.878Z,101643.09
2022-09-03T01:00:32.499Z,101639.78
2022-09-03T01:03:02.081Z,101646.22
2022-09-03T01:05:15.556Z,101637.44
2022-09-03T01:07:22.875Z,101640.13
2022-09-03T01:09:28.648Z,101648.06
2022-09-03T01:11:36.902Z,101640.31
2022-09-03T01:13:41.646Z,101643.84
2022-09-03T01:16:02.034Z,101642.16
2022-09-03T01:18:21.200Z,101647.66
2022-09-03T01:20:35.520Z,101641.53
2022-09-03T01:23:03.238Z,101643.50
2022-09-03T01:25:44.916Z,101648.22
2022-09-03T01:28:13.558Z,101643.00
2022-09-03T01:30:18.525Z,101642.28
2022-09-03T01:32:29.538Z,101645.81
2022-09-03T01:34:38.741Z,101646.81
2022-09-03T01:37:01.166Z,101650.44
2022-09-03T01:39:06.440Z,101651.41
2022-09-03T01:41:29.732Z,101646.31
2022-09-03T01:43:51.778Z,101641.16
2022-09-03T01:46:00.330Z,101645.66
2022-09-03T01:48:30.432Z,101642.34
2022-09-03T01:50:57.853Z,101645.13
2022-09-03T01:53:07.502Z,101631.88
2022-09-03T01:55:12.045Z,101633.84
2022-09-03T01:57:37.021Z,101644.63
2022-09-03T02:00:00.964Z,101635.84
2022-09-03T02:02:07.949Z,101642.09
2022-09-03T02:04:23.192Z,101635.88
2022-09-03T02:06:25.190Z,101638.59
2022-09-03T02:08:26.738Z,101645.72
2022-09-03T02:10:43.665Z,101640.34
2022-09-03T02:13:00.814Z,101642.28
2022-09-03T02:15:06.789Z,101641.47
2022-09-03T02:17:09.107Z,101639.72
2022-09-03T02:19:15.761Z,101646.03
2022-09-03T02:21:21.300Z,101639.94
2022-09-03T02:23:24.728Z,101644.44
2022-09-03T02:25:37.685Z,101640.16
2022-09-03T02:27:39.492Z,101638.41
2022-09-03T02:29:41.103Z,101634.13
2022-09-03T02:31:42.779Z,101644.81
2022-09-03T02:33:47.247Z,101637.81
2022-09-03T02:35:49.018Z,101636.13
2022-09-03T02:37:50.566Z,101638.72
2022-09-03T02:39:52.237Z,101640.50
2022-09-03T02:41:57.400Z,101640.50
2022-09-03T02:44:02.105Z,101640.50
2022-09-03T02:46:08.418Z,101641.44
2022-09-03T02:48:11.293Z,101636.16
2022-09-03T02:50:12.846Z,101641.44
2022-09-03T02:52:14.343Z,101636.16
2022-09-03T02:54:20.743Z,101635.25
2022-09-03T02:56:25.913Z,101637.13
2022-09-03T02:58:28.793Z,101639.75
2022-09-03T03:00:30.396Z,101646.03
2022-09-03T03:02:31.889Z,101644.25
2022-09-03T03:04:33.715Z,101635.44
2022-09-03T03:06:35.246Z,101639.03
2022-09-03T03:08:36.802Z,101640.81
2022-09-03T03:10:38.678Z,101633.75
2022-09-03T03:12:40.174Z,101638.22
2022-09-03T03:14:41.688Z,101636.47
2022-09-03T03:16:43.468Z,101634.72
2022-09-03T03:18:47.695Z,101637.44
2022-09-03T03:20:49.279Z,101644.50
2022-09-03T03:22:50.886Z,101641.94
2022-09-03T03:24:52.827Z,101644.69
2022-09-03T03:26:58.295Z,101636.72
2022-09-03T03:29:01.639Z,101635.78
2022-09-03T03:31:11.375Z,101635.75
2022-09-03T03:33:12.999Z,101640.19
2022-09-03T03:35:14.729Z,101634.06
2022-09-03T03:37:16.227Z,101636.75
2022-09-03T03:39:17.752Z,101633.13
2022-09-03T03:41:22.174Z,101642.75
2022-09-03T03:43:23.674Z,101641.09
2022-09-03T03:45:25.333Z,101636.66
2022-09-03T03:47:26.820Z,101634.94
2022-09-03T03:49:28.288Z,101634.09
2022-09-03T03:51:30.576Z,101633.19
2022-09-03T03:53:32.601Z,101631.50
2022-09-03T03:55:35.324Z,101637.69
2022-09-03T03:57:36.942Z,101639.53
2022-09-03T03:59:38.447Z,101641.28
2022-09-03T04:01:40.025Z,101641.31
2022-09-03T04:03:42.787Z,101636.94
2022-09-03T04:05:48.420Z,101637.78
2022-09-03T04:07:50.177Z,101634.31
2022-09-03T04:09:51.674Z,101636.06
2022-09-03T04:11:53.175Z,101637.84
2022-09-03T04:13:54.777Z,101635.19
2022-09-03T04:16:15.109Z,101635.19
2022-09-03T04:18:16.679Z,101629.81
2022-09-03T04:20:18.152Z,101636.06
2022-09-03T04:22:20.707Z,101635.28
2022-09-03T04:24:22.643Z,101629.09
2022-09-03T04:26:32.057Z,101633.59
2022-09-03T04:28:34.636Z,101634.50
2022-09-03T04:30:37.905Z,101627.44
2022-09-03T04:32:54.637Z,101637.22
2022-09-03T04:34:56.219Z,101630.19
2022-09-03T04:36:59.109Z,101629.25
2022-09-03T04:39:04.554Z,101625.72
2022-09-03T04:41:07.811Z,101631.00
2022-09-03T04:43:09.295Z,101624.88
2022-09-03T04:45:12.114Z,101627.47
2022-09-03T04:47:15.154Z,101626.56
2022-09-03T04:49:16.680Z,101623.03
2022-09-03T04:51:21.340Z,101625.72
2022-09-03T04:53:23.056Z,101630.19
2022-09-03T04:55:24.556Z,101628.44
2022-09-03T04:57:27.051Z,101629.44
2022-09-03T04:59:28.578Z,101633.91
2022-09-03T05:01:32.484Z,101632.19
2022-09-03T05:03:34.414Z,101636.59
2022-09-03T05:05:35.893Z,101631.19
2022-09-03T05:07:38.772Z,101638.25
2022-09-03T05:09:40.328Z,101634.66
2022-09-03T05:11:41.848Z,101636.41
2022-09-03T05:13:43.693Z,101636.41
2022-09-03T05:15:45.357Z,101631.91
2022-09-03T05:17:47.757Z,101641.63
2022-09-03T05:19:49.269Z,101640.75
2022-09-03T05:21:50.770Z,101634.56
2022-09-03T05:23:53.077Z,101636.31
2022-09-03T05:25:59.730Z,101635.38
2022-09-03T05:28:01.962Z,101637.88
2022-09-03T05:30:03.710Z,101636.97
2022-09-03T05:32:05.426Z,101640.41
2022-09-03T05:34:08.036Z,101636.06
2022-09-03T05:36:14.407Z,101636.00
2022-09-03T05:38:18.033Z,101635.97
2022-09-03T05:40:19.584Z,101632.38
2022-09-03T05:42:21.969Z,101634.06
2022-09-03T05:44:23.828Z,101633.00
2022-09-03T05:46:34.109Z,101623.94
2022-09-03T05:48:37.692Z,101624.63
2022-09-03T05:50:39.337Z,101627.03
2022-09-03T05:52:40.808Z,101631.31
2022-09-03T05:54:42.511Z,101641.72
2022-09-03T05:56:44.049Z,101633.66
2022-09-03T05:58:48.918Z,101637.03
2022-09-03T06:00:50.442Z,101629.75
2022-09-03T06:02:52.946Z,101639.31
2022-09-03T06:04:55.910Z,101632.06
2022-09-03T06:06:57.471Z,101644.31
2022-09-03T06:09:02.570Z,101645.94
2022-09-03T06:11:04.926Z,101639.63
2022-09-03T06:13:06.389Z,101645.66
2022-09-03T06:15:11.331Z,101643.72
2022-09-03T06:17:13.279Z,101647.06
2022-09-03T06:19:15.592Z,101651.41
2022-09-03T06:21:17.234Z,101647.72
2022-09-03T06:23:18.775Z,101650.16
2022-09-03T06:25:20.972Z,101650.00
2022-09-03T06:27:23.103Z,101640.97
2022-09-03T06:29:24.677Z,101649.75
2022-09-03T06:31:26.700Z,101641.59
2022-09-03T06:33:30.933Z,101649.41
2022-09-03T06:35:39.201Z,101639.34
2022-09-03T06:37:45.056Z,101639.16
2022-09-03T06:39:46.978Z,101640.66
2022-09-03T06:41:51.972Z,101637.81
2022-09-03T06:44:05.318Z,101634.94
2022-09-03T06:46:12.376Z,101636.53
2022-09-03T06:48:14.275Z,101639.88
2022-09-03T06:50:15.757Z,101633.44
2022-09-03T06:52:17.254Z,101641.31
2022-09-03T06:54:18.762Z,101634.81
2022-09-03T06:56:26.357Z,101639.91
2022-09-03T06:58:33.182Z,101643.25
2022-09-03T07:00:34.700Z,101645.00
2022-09-03T07:02:36.180Z,101645.78
2022-09-03T07:04:37.650Z,101640.28
2022-09-03T07:06:40.491Z,101639.19
2022-09-03T07:08:43.027Z,101636.22
2022-09-03T07:10:47.628Z,101644.88
2022-09-03T07:12:49.110Z,101634.00
2022-09-03T07:14:52.920Z,101639.97
2022-09-03T07:16:55.069Z,101638.78
2022-09-03T07:18:57.141Z,101643.03
2022-09-03T07:21:04.373Z,101639.34
2022-09-03T07:23:05.901Z,101641.16
2022-09-03T07:25:07.840Z,101635.75
2022-09-03T07:27:13.048Z,101631.97
2022-09-03T07:29:20.469Z,101632.63
2022-09-03T07:31:26.186Z,101630.56
2022-09-03T07:33:33.554Z,101625.91
2022-09-03T07:35:37.053Z,101628.22
2022-09-03T07:37:41.590Z,101627.03
2022-09-03T07:39:44.036Z,101627.75
2022-09-03T07:41:46.570Z,101615.91
2022-09-03T07:43:48.287Z,101628.19
2022-09-03T07:45:54.758Z,101629.66
2022-09-03T07:47:56.947Z,101629.38
2022-09-03T07:49:58.942Z,101626.50
2022-09-03T07:52:00.432Z,101627.97
2022-09-03T07:54:04.910Z,101618.81
2022-09-03T07:56:09.018Z,101624.84
2022-09-03T07:58:14.213Z,101625.56
2022-09-03T08:00:17.535Z,101631.50
2022-09-03T08:02:19.049Z,101629.47
2022-09-03T08:04:22.079Z,101626.44
2022-09-03T08:06:26.222Z,101638.59
2022-09-03T08:08:27.807Z,101639.16
2022-09-03T08:10:38.327Z,101638.91
2022-09-03T08:12:39.812Z,101636.78
2022-09-03T08:14:41.327Z,101630.38
2022-09-03T08:16:47.296Z,101641.69
2022-09-03T08:18:51.227Z,101639.81
2022-09-03T08:20:52.961Z,101631.72
2022-09-03T08:23:01.818Z,101636.84
2022-09-03T08:25:03.995Z,101638.34
2022-09-03T08:27:05.516Z,101637.13
2022-09-03T08:29:07.010Z,101630.34
2022-09-03T08:31:17.306Z,101632.50
2022-09-03T08:33:36.983Z,101638.56
2022-09-03T08:35:39.753Z,101633.75
2022-09-03T08:37:41.227Z,101636.03
2022-09-03T08:39:42.777Z,101638.50
2022-09-03T08:41:53.506Z,101629.16
2022-09-03T08:44:09.932Z,101632.38
2022-09-03T08:46:12.337Z,101628.59
2022-09-03T08:48:20.747Z,101630.09
2022-09-03T08:50:27.407Z,101630.72
2022-09-03T08:52:49.976Z,101632.91
2022-09-03T08:54:55.827Z,101634.41
2022-09-03T08:57:01.922Z,101633.97
2022-09-03T08:59:04.735Z,101639.88
2022-09-03T09:01:24.821Z,101645.06
2022-09-03T09:03:47.088Z,101642.91
2022-09-03T09:05:57.528Z,101633.84
2022-09-03T09:08:27.360Z,101641.78
2022-09-03T09:11:03.511Z,101620.03
2022-09-03T09:13:19.987Z,101624.88
2022-09-03T09:15:39.947Z,101622.66
2022-09-03T09:17:59.529Z,101620.59
2022-09-03T09:20:26.374Z,101629.00
2022-09-03T09:22:38.467Z,101623.19
2022-09-03T09:24:46.877Z,101627.34
2022-09-03T09:26:49.484Z,101627.19
2022-09-03T09:29:01.435Z,101615.28
2022-09-03T09:31:04.922Z,101621.97
2022-09-03T09:33:07.153Z,101616.06
2022-09-03T09:35:10.591Z,101619.34
2022-09-03T09:37:16.041Z,101606.78
2022-09-03T09:39:19.155Z,101607.38
2022-09-03T09:41:27.613Z,101616.03
2022-09-03T09:43:31.351Z,101607.63
2022-09-03T09:45:38.145Z,101606.44
2022-09-03T09:47:43.111Z,101619.84
2022-09-03T09:49:47.390Z,101614.47
2022-09-03T09:51:49.459Z,101609.03
2022-09-03T09:54:19.206Z,101606.84
2022-09-03T09:56:25.925Z,101602.81
2022-09-03T09:58:30.850Z,101598.63
2022-09-03T10:00:37.913Z,101592.81
2022-09-03T10:02:42.398Z,101606.69
2022-09-03T10:04:45.648Z,101608.91
2022-09-03T10:06:55.456Z,101599.13
2022-09-03T10:09:08.426Z,101596.84
2022-09-03T10:11:10.243Z,101597.41
2022-09-03T10:13:18.606Z,101591.41
2022-09-03T10:15:36.577Z,101589.56
2022-09-03T10:18:07.706Z,101587.94
2022-09-03T10:20:27.412Z,101595.59
2022-09-03T10:22:31.617Z,101583.69
2022-09-03T10:24:58.346Z,101584.75
2022-09-03T10:26:59.878Z,101587.16
2022-09-03T10:29:03.912Z,101581.31
2022-09-03T10:31:20.340Z,101582.53
2022-09-03T10:33:37.931Z,101582.47
2022-09-03T10:35:47.246Z,101575.16
2022-09-03T10:37:48.691Z,101576.03
2022-09-03T10:40:18.932Z,101568.56
2022-09-03T10:42:45.760Z,101571.75
2022-09-03T10:45:11.442Z,101569.63
2022-09-03T10:47:29.368Z,101572.78
2022-09-03T10:49:40.103Z,101572.34
2022-09-03T10:51:49.497Z,101564.56
2022-09-03T10:53:51.241Z,101569.94
2022-09-03T10:56:17.810Z,101578.38
2022-09-03T10:58:23.653Z,101569.34
2022-09-03T11:00:28.557Z,101562.75
2022-09-03T11:02:54.840Z,101561.16
2022-09-03T11:05:04.999Z,101556.66
2022-09-03T11:07:10.403Z,101545.06
2022-09-03T11:09:20.114Z,101568.63
2022-09-03T11:11:29.796Z,101553.22
2022-09-03T11:13:38.008Z,101553.31
2022-09-03T11:15:51.941Z,101556.94
2022-09-03T11:18:33.867Z,101550.41
2022-09-03T11:20:35.656Z,101544.34
2022-09-03T11:22:46.553Z,101532.25
2022-09-03T11:24:58.413Z,101546.94
2022-09-03T11:27:15.991Z,101537.38
2022-09-03T11:29:18.344Z,101542.00
2022-09-03T11:32:01.704Z,101533.69
2022-09-03T11:34:23.405Z,101527.56
2022-09-03T11:36:38.143Z,101545.03
2022-09-03T11:38:39.674Z,101530.28
2022-09-03T11:41:00.642Z,101542.63
2022-09-03T11:43:24.260Z,101532.69
2022-09-03T11:45:30.132Z,101529.72
2022-09-03T11:47:41.533Z,101526.28
2022-09-03T11:49:53.195Z,101529.06
2022-09-03T11:52:03.661Z,101531.00
2022-09-03T11:54:24.498Z,101522.09
2022-09-03T11:56:27.540Z,101524.16
2022-09-03T11:58:36.578Z,101504.25
2022-09-03T12:00:40.983Z,101527.88
2022-09-03T12:02:52.487Z,101520.84
2022-09-03T12:05:25.836Z,101519.75
2022-09-03T12:07:55.301Z,101518.44
2022-09-03T12:10:35.370Z,101516.66
2022-09-03T12:12:54.803Z,101513.88
2022-09-03T12:15:02.492Z,101510.81
2022-09-03T12:17:18.328Z,101515.91
2022-09-03T12:19:32.736Z,101510.50
2022-09-03T12:21:40.170Z,101507.94
2022-09-03T12:23:49.133Z,101518.38
2022-09-03T12:25:52.516Z,101513.22
2022-09-03T12:27:54.099Z,101504.78
2022-09-03T12:30:00.965Z,101515.25
2022-09-03T12:32:08.597Z,101510.09
2022-09-03T12:34:13.326Z,101523.03
2022-09-03T12:36:16.082Z,101514.31
2022-09-03T12:38:24.895Z,101507.69
2022-09-03T12:40:29.277Z,101511.09
2022-09-03T12:42:32.265Z,101510.94
2022-09-03T12:44:36.804Z,101501.63
2022-09-03T12:46:38.353Z,101497.31
2022-09-03T12:48:46.951Z,101499.41
2022-09-03T12:50:56.505Z,101503.47
2022-09-03T12:53:01.839Z,101501.50
2022-09-03T12:55:16.605Z,101497.91
2022-09-03T12:57:23.558Z,101500.97
2022-09-03T12:59:28.363Z,101494.56
2022-09-03T13:01:34.939Z,101492.59
2022-09-03T13:03:50.589Z,101490.34
2022-09-03T13:05:57.264Z,101491.56
2022-09-03T13:08:04.048Z,101491.19
2022-09-03T13:10:08.734Z,101492.91
2022-09-03T13:12:33.556Z,101486.38
2022-09-03T13:14:47.665Z,101478.75
2022-09-03T13:17:21.268Z,101485.34
2022-09-03T13:19:51.859Z,101480.91
2022-09-03T13:22:22.607Z,101481.41
2022-09-03T13:24:39.349Z,101485.59
2022-09-03T13:27:08.158Z,101473.06
2022-09-03T13:29:30.115Z,101466.69
2022-09-03T13:31:38.787Z,101468.41
2022-09-03T13:33:55.710Z,101476.00
2022-09-03T13:36:03.463Z,101472.06
2022-09-03T13:38:23.120Z,101466.03
2022-09-03T13:40:35.059Z,101472.53
2022-09-03T13:42:41.413Z,101473.50
2022-09-03T13:44:50.145Z,101466.38
2022-09-03T13:46:56.033Z,101467.47
2022-09-03T13:49:43.720Z,101461.34
2022-09-03T13:51:56.969Z,101457.41
2022-09-03T13:54:47.635Z,101463.03
2022-09-03T13:56:58.797Z,101456.66
2022-09-03T13:59:31.168Z,101453.94
2022-09-03T14:01:41.874Z,101457.63
2022-09-03T14:03:48.931Z,101445.97
2022-09-03T14:05:56.705Z,101455.03
2022-09-03T14:08:09.986Z,101456.88
2022-09-03T14:10:14.411Z,101452.50
2022-09-03T14:12:42.656Z,101451.53
2022-09-03T14:15:11.015Z,101444.41
2022-09-03T14:17:14.892Z,101446.25
2022-09-03T14:19:23.789Z,101448.97
2022-09-03T14:21:35.914Z,101445.63
2022-09-03T14:23:55.096Z,101442.06
2022-09-03T14:26:00.534Z,101447.81
2022-09-03T14:28:43.049Z,101446.09
2022-09-03T14:31:05.298Z,101441.69
2022-09-03T14:33:21.797Z,101437.03
2022-09-03T14:35:45.450Z,101443.41
2022-09-03T14:37:52.660Z,101448.78
2022-09-03T14:40:03.974Z,101435.31
2022-09-03T14:42:07.159Z,101447.94
2022-09-03T14:44:32.750Z,101446.34
2022-09-03T14:46:58.312Z,101442.66
2022-09-03T14:49:17.950Z,101438.59
2022-09-03T14:51:46.336Z,101438.59
2022-09-03T14:53:55.660Z,101450.47
2022-09-03T14:56:05.544Z,101437.97
2022-09-03T14:58:23.816Z,101438.66
2022-09-03T15:00:48.451Z,101448.59
2022-09-03T15:02:58.967Z,101431.28
2022-09-03T15:05:21.256Z,101433.84
2022-09-03T15:07:59.520Z,101434.09
2022-09-03T15:10:12.122Z,101439.59
2022-09-03T15:12:13.557Z,101439.69
2022-09-03T15:14:22.267Z,101436.16
2022-09-03T15:16:45.473Z,101438.97
2022-09-03T15:18:53.768Z,101437.34
2022-09-03T15:21:47.551Z,101431.44
2022-09-03T15:24:43.243Z,101434.25
2022-09-03T15:27:22.214Z,101436.06
2022-09-03T15:29:33.643Z,101441.34
2022-09-03T15:32:09.714Z,101436.81
2022-09-03T15:34:18.196Z,101428.75
2022-09-03T15:36:26.386Z,101434.75
2022-09-03T15:38:45.249Z,101433.91
2022-09-03T15:40:46.668Z,101427.66
2022-09-03T15:42:52.704Z,101434.75
2022-09-03T15:45:01.794Z,101441.25
2022-09-03T15:47:31.732Z,101441.25
2022-09-03T15:50:15.331Z,101443.50
2022-09-03T15:52:33.645Z,101443.31
2022-09-03T15:54:43.074Z,101446.19
2022-09-03T15:56:59.728Z,101443.41
2022-09-03T15:59:12.400Z,101442.63
2022-09-03T16:01:33.060Z,101436.38
2022-09-03T16:04:09.700Z,101451.91
2022-09-03T16:06:37.520Z,101441.88
2022-09-03T16:08:50.457Z,101444.69
2022-09-03T16:11:07.746Z,101453.53
2022-09-03T16:13:30.879Z,101450.84
2022-09-03T16:15:41.697Z,101460.00
2022-09-03T16:18:06.769Z,101453.97
2022-09-03T16:20:31.078Z,101457.75
2022-09-03T16:22:37.484Z,101457.88
2022-09-03T16:24:55.360Z,101455.25
2022-09-03T16:27:06.218Z,101459.59
2022-09-03T16:29:12.835Z,101459.66
2022-09-03T16:31:28.958Z,101454.63
2022-09-03T16:33:57.367Z,101456.44
2022-09-03T16:36:04.769Z,101458.38
2022-09-03T16:38:27.906Z,101464.00
2022-09-03T16:40:35.480Z,101456.03
2022-09-03T16:43:18.029Z,101456.13
2022-09-03T16:45:51.166Z,101456.34
2022-09-03T16:47:53.985Z,101462.19
2022-09-03T16:50:13.968Z,101464.13
2022-09-03T16:52:39.051Z,101457.22
2022-09-03T16:55:03.477Z,101466.50
2022-09-03T16:57:26.437Z,101464.34
2022-09-03T16:59:27.865Z,101468.03
2022-09-03T17:01:41.497Z,101463.50
2022-09-03T17:04:07.739Z,101471.13
2022-09-03T17:06:27.996Z,101472.28
2022-09-03T17:09:01.817Z,101480.47
2022-09-03T17:11:13.150Z,101476.28
2022-09-03T17:13:32.038Z,101481.94
2022-09-03T17:16:28.936Z,101466.97
2022-09-03T17:18:49.397Z,101477.97
2022-09-03T17:21:12.426Z,101473.53
2022-09-03T17:23:33.588Z,101474.06
2022-09-03T17:25:51.206Z,101475.91
2022-09-03T17:28:24.993Z,101479.56
2022-09-03T17:30:48.619Z,101485.44
2022-09-03T17:32:57.202Z,101482.19
2022-09-03T17:35:20.019Z,101476.94
2022-09-03T17:37:27.364Z,101476.16
2022-09-03T17:40:01.704Z,101486.28
2022-09-03T17:42:12.670Z,101487.56
2022-09-03T17:44:33.877Z,101491.09
2022-09-03T17:47:05.654Z,101501.09
2022-09-03T17:49:09.351Z,101499.50
2022-09-03T17:51:31.826Z,101504.97
2022-09-03T17:53:44.180Z,101500.66
2022-09-03T17:55:56.251Z,101501.06
2022-09-03T17:58:14.709Z,101506.84
2022-09-03T18:00:40.284Z,101510.50
2022-09-03T18:03:01.983Z,101516.84
2022-09-03T18:05:30.146Z,101515.31
2022-09-03T18:07:44.313Z,101520.22
2022-09-03T18:10:06.792Z,101524.63
2022-09-03T18:12:59.850Z,101519.44
2022-09-03T18:15:15.180Z,101523.38
2022-09-03T18:17:34.947Z,101531.75
2022-09-03T18:20:14.397Z,101532.72
2022-09-03T18:22:34.747Z,101541.06
2022-09-03T18:25:03.254Z,101537.53
2022-09-03T18:27:36.830Z,101541.28
2022-09-03T18:30:09.585Z,101543.19
2022-09-03T18:32:29.932Z,101542.63
2022-09-03T18:34:52.916Z,101550.88
2022-09-03T18:37:16.988Z,101551.06
2022-09-03T18:39:47.527Z,101553.06
2022-09-03T18:42:23.899Z,101562.28
2022-09-03T18:45:24.345Z,101557.97
2022-09-03T18:48:20.260Z,101559.31
2022-09-03T18:50:46.990Z,101565.75
2022-09-03T18:53:20.708Z,101568.53
2022-09-03T18:56:14.285Z,101573.50
2022-09-03T18:58:53.404Z,101576.97
2022-09-03T19:01:38.515Z,101580.91
2022-09-03T19:04:21.488Z,101574.09
2022-09-03T19:06:58.594Z,101575.91
2022-09-03T19:09:24.452Z,101579.84
2022-09-03T19:12:03.166Z,101582.81
2022-09-03T19:14:32.640Z,101585.69
2022-09-03T19:16:58.638Z,101589.53
2022-09-03T19:19:41.943Z,101596.81
2022-09-03T19:22:28.178Z,101592.78
2022-09-03T19:24:49.520Z,101594.69
2022-09-03T19:27:55.737Z,101602.16
2022-09-03T19:30:27.297Z,101604.06
2022-09-03T19:33:17.146Z,101607.09
2022-09-03T19:35:45.495Z,101617.06
2022-09-03T19:38:14.419Z,101619.13
2022-09-03T19:40:46.914Z,101622.69
2022-09-03T19:43:48.038Z,101622.09
2022-09-03T19:46:42.532Z,101626.75
2022-09-03T19:49:24.571Z,101625.13
2022-09-03T19:51:53.078Z,101628.94
2022-09-03T19:54:14.833Z,101620.13
2022-09-03T19:56:46.716Z,101628.44
2022-09-03T19:59:21.236Z,101632.06
2022-09-03T20:01:47.876Z,101638.66
2022-09-03T20:04:09.392Z,101628.97
2022-09-03T20:06:30.752Z,101638.81
2022-09-03T20:08:52.110Z,101646.97
2022-09-03T20:10:59.012Z,101646.19
2022-09-03T20:13:10.168Z,101638.31
2022-09-03T20:15:11.884Z,101638.50
2022-09-03T20:17:13.323Z,101642.97
2022-09-03T20:19:41.870Z,101651.31
2022-09-03T20:21:55.552Z,101647.94
2022-09-03T20:24:24.650Z,101650.88
2022-09-03T20:26:28.822Z,101642.50
2022-09-03T20:28:52.051Z,101645.88
2022-09-03T20:31:08.225Z,101647.06
2022-09-03T20:33:23.103Z,101646.38
2022-09-03T20:35:38.541Z,101647.31
2022-09-03T20:38:27.663Z,101644.97
2022-09-03T20:40:45.566Z,101649.88
2022-09-03T20:43:05.648Z,101642.25
2022-09-03T20:45:10.132Z,101639.81
2022-09-03T20:47:36.367Z,101654.56
2022-09-03T20:50:07.532Z,101660.00
2022-09-03T20:52:18.415Z,101661.84
2022-09-03T20:54:32.371Z,101668.31
2022-09-03T20:56:40.199Z,101666.66
2022-09-03T20:58:58.570Z,101673.97
2022-09-03T21:01:09.177Z,101669.91
2022-09-03T21:03:22.412Z,101671.88
2022-09-03T21:05:35.070Z,101676.47
2022-09-03T21:07:37.459Z,101678.44
2022-09-03T21:10:02.954Z,101683.25
2022-09-03T21:12:42.652Z,101679.94
2022-09-03T21:15:01.015Z,101687.34
2022-09-03T21:17:15.766Z,101687.50
2022-09-03T21:19:24.276Z,101679.63
2022-09-03T21:21:45.634Z,101687.72
2022-09-03T21:24:03.800Z,101695.91
2022-09-03T21:26:21.325Z,101700.56
2022-09-03T21:28:28.584Z,101692.81
2022-09-03T21:30:32.442Z,101695.63
2022-09-03T21:32:50.267Z,101697.59
2022-09-03T21:35:08.568Z,101704.13
2022-09-03T21:37:12.747Z,101700.88
2022-09-03T21:39:27.446Z,101710.88
2022-09-03T21:41:50.567Z,101711.03
2022-09-03T21:44:12.044Z,101702.28
2022-09-03T21:46:18.883Z,101710.31
2022-09-03T21:48:24.959Z,101706.84
2022-09-03T21:50:34.935Z,101710.59
2022-09-03T21:52:47.810Z,101712.56
2022-09-03T21:54:49.348Z,101711.88
2022-09-03T21:57:23.432Z,101712.00
2022-09-03T22:00:08.219Z,101707.88
2022-09-03T22:02:17.027Z,101708.97
2022-09-03T22:04:18.594Z,101721.53
2022-09-03T22:06:28.622Z,101716.34
2022-09-03T22:08:44.966Z,101714.75
2022-09-03T22:11:05.186Z,101715.75
2022-09-03T22:13:15.700Z,101719.53
2022-09-03T22:15:19.630Z,101718.06
2022-09-03T22:17:46.157Z,101718.22
2022-09-03T22:19:47.713Z,101724.69
2022-09-03T22:22:00.150Z,101723.94
2022-09-03T22:24:31.990Z,101726.97
2022-09-03T22:26:45.230Z,101722.06
2022-09-03T22:28:56.785Z,101720.47
2022-09-03T22:31:27.605Z,101729.47
2022-09-03T22:33:54.716Z,101727.81
2022-09-03T22:36:02.101Z,101731.47
2022-09-03T22:38:28.736Z,101729.88
2022-09-03T22:40:55.327Z,101728.31
2022-09-03T22:43:08.958Z,101729.25
2022-09-03T22:45:21.665Z,101725.84
2022-09-03T22:47:37.221Z,101723.25
2022-09-03T22:50:11.328Z,101730.56
2022-09-03T22:52:32.913Z,101725.28
2022-09-03T22:54:43.429Z,101719.09
2022-09-03T22:56:45.606Z,101718.28
2022-09-03T22:58:56.424Z,101720.16
2022-09-03T23:01:05.651Z,101718.41
2022-09-03T23:03:19.262Z,101721.28
2022-09-03T23:05:38.486Z,101727.63
2022-09-03T23:07:58.844Z,101722.34
2022-09-03T23:10:11.630Z,101725.22
2022-09-03T23:12:20.157Z,101731.44
2022-09-03T23:14:28.310Z,101728.81
2022-09-03T23:16:53.424Z,101727.16
2022-09-03T23:18:57.591Z,101723.75
2022-09-03T23:21:07.749Z,101734.50
2022-09-03T23:23:20.191Z,101736.28
2022-09-03T23:25:31.003Z,101731.97
2022-09-03T23:27:58.951Z,101725.91
2022-09-03T23:30:02.342Z,101731.31
2022-09-03T23:32:07.526Z,101725.97
2022-09-03T23:34:10.521Z,101716.28
2022-09-03T23:36:51.071Z,101716.34
2022-09-03T23:38:56.890Z,101721.03
2022-09-03T23:41:04.104Z,101735.38
2022-09-03T23:43:33.314Z,101729.34
2022-09-03T23:45:53.427Z,101726.94
2022-09-03T23:48:08.291Z,101727.06
2022-09-03T23:50:15.519Z,101723.53
2022-09-03T23:52:35.440Z,101729.78
2022-09-03T23:54:55.476Z,101727.38
2022-09-03T23:57:03.146Z,101728.41
2022-09-03T23:59:28.637Z,101724.91
